Time;durP1;ratioP1;P1;durP2;ratioP2;P2;SDS_P1;SDS_P2;PMS_P1;PMS_P2;Temp;Humidity;BMP_temperature;BMP_pressure;BME280_temperature;BME280_humidity;BME280_pressure;Samples;Min_cycle;Max_cycle;Signal;HPM_P1;HPM_P2
2022/07/13 00:03:41;;;;;;;7.97;4.10;;;19.90;99.90;;;;;;6184500;23;20445;-84
2022/07/13 00:06:07;;;;;;;11.13;4.28;;;20.00;99.90;;;;;;6185588;23;20013;-85
2022/07/13 00:08:33;;;;;;;9.90;4.38;;;20.00;99.90;;;;;;6185009;23;20013;-85
2022/07/13 00:12:12;;;;;;;8.15;4.25;;;19.90;99.90;;;;;;6157759;23;20016;-85
2022/07/13 00:18:18;;;;;;;9.52;4.50;;;19.80;99.90;;;;;;6155277;23;20504;-85
2022/07/13 00:20:49;;;;;;;8.13;4.30;;;19.80;99.90;;;;;;6155393;23;20100;-85
2022/07/13 00:23:38;;;;;;;9.55;4.47;;;19.40;99.90;;;;;;6154140;23;20014;-85
2022/07/13 00:26:46;;;;;;;;;;;;;;;;;;;;;
2022/07/13 00:29:53;;;;;;;9.65;4.80;;;20.40;99.90;;;;;;6142540;23;20020;-85
2022/07/13 00:32:44;;;;;;;8.45;4.63;;;19.90;99.90;;;;;;6129277;23;20024;-86
2022/07/13 00:35:12;;;;;;;9.27;5.20;;;19.80;99.90;;;;;;6129545;23;20018;-85
2022/07/13 00:38:32;;;;;;;10.00;5.20;;;19.80;99.90;;;;;;6154572;23;20068;-85
2022/07/13 00:45:16;;;;;;;9.18;4.80;;;19.70;99.90;;;;;;5989301;23;20025;-85
2022/07/13 00:47:43;;;;;;;9.95;4.65;;;19.80;99.90;;;;;;6128752;23;20055;-85
2022/07/13 00:50:27;;;;;;;10.10;4.95;;;20.10;99.90;;;;;;6148158;23;20505;-86
2022/07/13 01:00:18;;;;;;;10.43;5.18;;;19.70;99.90;;;;;;6128352;23;20104;-85
2022/07/13 01:03:06;;;;;;;8.65;4.75;;;19.50;99.90;;;;;;6128533;23;20024;-85
2022/07/13 01:05:51;;;;;;;10.88;5.15;;;20.80;99.90;;;;;;6154791;23;20014;-86
2022/07/13 01:08:33;;;;;;;8.98;4.70;;;20.70;99.90;;;;;;6128732;23;20178;-85
2022/07/13 01:18:39;;;;;;;9.93;5.32;;;19.90;99.90;;;;;;5978786;24;20064;-85
2022/07/13 01:21:10;;;;;;;;;;;20.00;99.90;;;;;;5956778;24;20028;-84
2022/07/13 01:24:25;;;;;;;9.63;5.10;;;19.90;99.90;;;;;;5956204;24;19919;-86
2022/07/13 01:26:51;;;;;;;10.05;4.95;;;19.90;99.90;;;;;;5977734;24;20020;-84
2022/07/13 01:30:03;;;;;;;9.15;4.90;;;19.90;99.90;;;;;;5979833;24;20458;-84
2022/07/13 01:32:53;;;;;;;8.15;4.50;;;19.90;99.90;;;;;;5891291;24;20447;-84
2022/07/13 01:35:38;;;;;;;9.27;4.70;;;19.70;99.90;;;;;;5874372;24;20625;-84
2022/07/13 01:38:16;;;;;;;8.48;4.35;;;19.60;99.90;;;;;;5896958;24;20040;-84
2022/07/13 01:41:03;;;;;;;10.70;5.20;;;20.60;99.90;;;;;;5895612;24;20029;-84
2022/07/13 01:43:35;;;;;;;9.50;5.10;;;19.70;99.90;;;;;;5901006;24;20017;-85
2022/07/13 01:46:05;;;;;;;9.35;4.90;;;20.20;99.90;;;;;;5900184;24;20033;-85
2022/07/13 01:48:38;;;;;;;10.50;4.93;;;19.70;99.90;;;;;;5901363;24;20032;-85
2022/07/13 01:51:42;;;;;;;8.77;4.80;;;19.80;99.90;;;;;;5943376;23;20064;-85
2022/07/13 01:54:13;;;;;;;10.75;4.80;;;19.60;99.90;;;;;;5960274;23;20028;-85
2022/07/13 01:57:20;;;;;;;9.98;4.70;;;20.00;99.90;;;;;;5984094;23;20095;-85
2022/07/13 01:59:45;;;;;;;10.30;5.53;;;19.60;99.90;;;;;;5954919;24;20114;-85
2022/07/13 02:02:13;;;;;;;12.02;5.30;;;19.70;99.90;;;;;;5964145;23;20024;-85
2022/07/13 02:05:10;;;;;;;12.07;6.15;;;20.60;99.90;;;;;;6084466;23;20342;-85
2022/07/13 02:08:12;;;;;;;12.20;6.10;;;19.70;99.90;;;;;;6118710;23;20036;-85
2022/07/13 02:14:08;;;;;;;12.48;7.32;;;19.80;99.90;;;;;;6183401;23;20029;-85
2022/07/13 02:16:33;;;;;;;12.73;6.85;;;20.00;99.90;;;;;;6158684;23;20048;-85
2022/07/13 02:19:43;;;;;;;13.38;7.03;;;20.00;99.90;;;;;;6158051;23;20363;-85
2022/07/13 02:22:24;;;;;;;11.82;6.63;;;19.90;99.90;;;;;;6035170;23;20040;-85
2022/07/13 02:29:11;;;;;;;12.65;6.95;;;20.00;99.90;;;;;;6005926;23;20130;-85
2022/07/13 02:31:56;;;;;;;14.15;7.20;;;20.00;99.90;;;;;;5979515;24;20035;-85
2022/07/13 02:38:39;;;;;;;11.50;7.50;;;20.20;99.90;;;;;;5877614;24;20017;-85
2022/07/13 02:41:35;;;;;;;14.00;7.97;;;19.90;99.90;;;;;;5934276;24;20024;-85
2022/07/13 02:44:19;;;;;;;12.23;7.55;;;20.10;99.90;;;;;;5980321;24;20031;-85
2022/07/13 02:46:46;;;;;;;12.93;8.20;;;20.10;99.90;;;;;;5896977;24;20031;-85
2022/07/13 02:49:40;;;;;;;13.85;8.15;;;21.00;99.90;;;;;;5898359;24;20021;-85
2022/07/13 03:03:10;;;;;;;15.60;7.88;;;20.20;99.90;;;;;;6178737;23;20028;-84
2022/07/13 03:05:45;;;;;;;12.35;7.63;;;20.20;99.90;;;;;;6094408;23;20020;-84
2022/07/13 03:08:40;;;;;;;14.13;7.68;;;21.20;99.90;;;;;;6186800;23;20013;-85
2022/07/13 03:11:21;;;;;;;12.20;7.97;;;20.40;99.90;;;;;;6185030;23;20025;-85
2022/07/13 03:14:27;;;;;;;12.48;7.82;;;21.00;99.90;;;;;;6158801;23;20330;-85
2022/07/13 03:21:00;;;;;;;13.10;7.65;;;20.20;99.90;;;;;;6185426;23;20032;-84
2022/07/13 03:24:00;;;;;;;;;;;;;;;;;;;;;
2022/07/13 03:26:50;;;;;;;12.80;6.90;;;19.90;99.90;;;;;;6185287;23;20021;-85
2022/07/13 03:33:56;;;;;;;13.18;7.68;;;20.00;99.90;;;;;;5952287;24;20072;-85
2022/07/13 03:40:43;;;;;;;11.50;7.05;;;20.20;99.90;;;;;;5747312;24;20033;-85
2022/07/13 03:44:04;;;;;;;13.18;7.20;;;20.80;99.90;;;;;;5821834;24;20023;-84
2022/07/13 03:46:45;;;;;;;12.68;7.88;;;20.00;99.90;;;;;;5820686;24;20420;-85
2022/07/13 03:51:40;;;;;;;13.25;7.53;;;20.00;99.90;;;;;;6156176;23;20025;-84
2022/07/13 03:54:09;;;;;;;13.65;7.65;;;20.00;99.90;;;;;;6128744;23;20021;-84
2022/07/13 03:56:35;;;;;;;12.45;6.88;;;20.20;99.90;;;;;;6130334;23;20024;-85
2022/07/13 03:59:01;;;;;;;12.90;7.57;;;20.00;99.90;;;;;;6129214;23;20060;-85
2022/07/13 04:01:26;;;;;;;11.70;6.68;;;20.00;99.90;;;;;;6154608;23;20032;-84
2022/07/13 04:03:52;;;;;;;10.70;6.55;;;20.00;99.90;;;;;;6129405;23;20052;-85
2022/07/13 04:06:20;;;;;;;14.35;7.45;;;20.00;99.90;;;;;;6155649;23;20323;-85
2022/07/13 04:08:46;;;;;;;11.70;6.47;;;20.00;99.90;;;;;;6154410;23;20013;-85
2022/07/13 04:11:11;;;;;;;12.45;7.13;;;20.00;99.90;;;;;;6129336;23;20338;-85
2022/07/13 04:13:37;;;;;;;12.65;7.20;;;20.00;99.90;;;;;;6155338;23;20018;-84
2022/07/13 04:18:38;;;;;;;13.27;7.15;;;20.00;99.90;;;;;;6156921;23;20068;-85
2022/07/13 04:21:49;;;;;;;;;;;;;;;;;;;;;
2022/07/13 04:24:49;;;;;;;12.10;7.05;;;20.10;99.90;;;;;;6005011;23;20019;-85
2022/07/13 04:31:15;;;;;;;10.35;5.75;;;20.10;99.90;;;;;;5951416;24;20036;-85
2022/07/13 04:34:22;;;;;;;;;;;;;;;;;;;;;
2022/07/13 04:37:24;;;;;;;10.95;6.22;;;20.20;99.90;;;;;;5965643;23;20026;-85
2022/07/13 04:50:45;;;;;;;11.55;5.10;;;20.40;99.90;;;;;;6062870;23;20078;-85
2022/07/13 04:53:32;;;;;;;11.45;5.38;;;20.40;99.90;;;;;;6000686;23;20446;-85
2022/07/13 04:56:50;;;;;;;12.23;5.50;;;20.20;99.90;;;;;;6040031;23;20058;-85
2022/07/13 05:10:29;;;;;;;;;;;;;;;;;;;;;
2022/07/13 05:14:10;;;;;;;12.02;5.15;;;20.60;99.90;;;;;;6073428;23;20460;-85
2022/07/13 05:20:50;;;;;;;10.40;5.65;;;20.80;99.90;;;;;;6008325;23;20075;-85
2022/07/13 05:34:56;;;;;;;;;;;;;;;;;;;;;
2022/07/13 05:45:45;;;;;;;11.98;4.40;;;21.40;99.90;;;;;;5869336;24;20473;-85
2022/07/13 05:48:40;;;;;;;10.10;4.40;;;21.50;99.90;;;;;;5846989;24;20022;-85
2022/07/13 06:06:35;;;;;;;;;;;;;;;;;;;;;
2022/07/13 06:10:00;;;;;;;;;;;;;;;;;;;;;
2022/07/13 06:12:47;;;;;;;8.30;3.47;;;21.80;99.90;;;;;;5986269;23;20094;-85
2022/07/13 06:15:59;;;;;;;9.20;3.42;;;22.40;99.90;;;;;;6013744;23;20034;-85
2022/07/13 06:19:08;;;;;;;9.65;3.70;;;21.40;99.90;;;;;;6038460;23;20030;-89
2022/07/13 07:52:55;;;;;;;11.48;5.75;;;24.20;99.90;;;;;;6113982;23;20017;-88
2022/07/13 08:44:41;;;;;;;13.57;5.97;;;24.90;99.90;;;;;;6197922;23;20172;-89
2022/07/13 13:24:33;;;;;;;;;;;;;;;;;;;;;
2022/07/13 14:54:10;;;;;;;7.22;2.70;;;28.50;94.20;;;;;;6185636;23;20105;-86
2022/07/13 15:05:13;;;;;;;8.57;2.92;;;27.50;94.70;;;;;;6036236;23;20047;-86
2022/07/13 15:07:43;;;;;;;7.65;2.65;;;27.40;94.80;;;;;;6013176;23;20103;-86
2022/07/13 15:47:08;;;;;;;9.60;3.35;;;26.60;97.30;;;;;;6185453;23;20032;-85
2022/07/13 15:57:34;;;;;;;7.93;3.00;;;26.60;97.50;;;;;;6185267;23;20113;-87
2022/07/13 16:04:15;;;;;;;7.93;2.85;;;26.90;97.10;;;;;;6183394;23;20385;-88
2022/07/13 16:10:41;;;;;;;8.35;2.70;;;27.10;97.00;;;;;;6036189;23;20069;-84
2022/07/13 16:13:51;;;;;;;;;;;;;;;;;;;;;
2022/07/13 16:16:41;;;;;;;8.88;2.60;;;26.90;96.80;;;;;;6035843;23;20455;-84
2022/07/13 16:19:31;;;;;;;8.20;2.60;;;27.20;96.70;;;;;;6035420;23;20472;-84
2022/07/13 16:26:00;;;;;;;8.20;2.75;;;27.50;96.60;;;;;;6184942;23;20012;-84
2022/07/13 16:32:14;;;;;;;11.68;2.80;;;27.10;96.20;;;;;;6004896;23;20072;-84
2022/07/13 16:45:37;;;;;;;8.48;2.58;;;27.30;95.60;;;;;;6157722;23;20346;-84
2022/07/13 16:52:15;;;;;;;8.88;2.50;;;27.30;94.80;;;;;;6036326;23;20098;-84
2022/07/13 16:55:21;;;;;;;9.30;2.83;;;27.20;95.30;;;;;;6030217;23;20059;-85
2022/07/13 16:58:31;;;;;;;8.50;2.45;;;27.30;95.10;;;;;;6118522;23;20031;-84
2022/07/13 17:01:09;;;;;;;10.52;2.92;;;27.20;94.80;;;;;;6156994;23;20063;-84
2022/07/13 17:07:48;;;;;;;11.98;2.70;;;27.00;95.50;;;;;;6035510;23;20094;-85
2022/07/13 17:10:29;;;;;;;12.60;2.92;;;26.40;96.10;;;;;;6036522;23;20095;-84
2022/07/13 17:13:10;;;;;;;10.90;2.72;;;26.20;96.60;;;;;;6011983;23;20027;-85
2022/07/13 17:16:16;;;;;;;11.38;3.40;;;25.80;97.00;;;;;;6013959;23;20019;-84
2022/07/13 18:00:40;;;;;;;12.23;2.72;;;23.80;97.80;;;;;;6183383;23;20085;-88
2022/07/13 18:07:16;;;;;;;10.38;2.40;;;23.40;98.70;;;;;;6184173;23;20095;-88
2022/07/13 18:09:42;;;;;;;14.05;3.00;;;22.90;99.20;;;;;;6159617;23;20024;-88
2022/07/13 18:13:06;;;;;;;;;;;;;;;;;;;;;
2022/07/13 18:16:09;;;;;;;15.35;2.95;;;22.10;99.90;;;;;;6037332;23;20015;-88
2022/07/13 18:18:38;;;;;;;12.82;2.85;;;21.70;99.90;;;;;;6012734;23;20039;-88
2022/07/13 18:21:36;;;;;;;15.82;3.28;;;21.50;99.90;;;;;;6013053;23;20102;-88
2022/07/13 18:24:04;;;;;;;14.85;2.90;;;21.20;99.90;;;;;;6037325;23;20034;-88
2022/07/13 18:26:30;;;;;;;14.23;2.80;;;21.00;99.90;;;;;;6043777;23;20045;-88
2022/07/13 18:28:55;;;;;;;14.88;2.78;;;21.00;99.90;;;;;;6186135;23;20024;-89
2022/07/13 18:31:22;;;;;;;13.13;2.50;;;21.10;99.90;;;;;;6160243;23;20025;-89
2022/07/13 18:33:48;;;;;;;13.05;2.50;;;21.50;99.90;;;;;;6158162;23;20024;-89
2022/07/13 18:36:14;;;;;;;14.82;3.38;;;21.80;99.90;;;;;;6159360;23;20021;-87
2022/07/13 18:38:47;;;;;;;15.98;3.47;;;22.00;99.90;;;;;;6185773;23;20017;-88
2022/07/13 18:41:13;;;;;;;18.15;3.17;;;22.00;99.90;;;;;;6160162;23;20021;-88
2022/07/13 18:43:39;;;;;;;13.82;2.80;;;21.80;99.90;;;;;;6186505;23;20017;-89
2022/07/13 18:46:04;;;;;;;14.27;3.08;;;21.60;99.90;;;;;;6157503;23;20707;-88
2022/07/13 18:48:30;;;;;;;13.10;3.13;;;21.20;99.90;;;;;;6159389;23;20013;-88
2022/07/13 18:50:55;;;;;;;12.68;2.55;;;20.90;99.90;;;;;;6159797;23;20025;-87
2022/07/13 18:53:22;;;;;;;16.13;3.33;;;20.70;99.90;;;;;;6185402;23;20043;-88
2022/07/13 18:55:48;;;;;;;12.43;2.97;;;20.50;99.90;;;;;;6185817;23;20429;-90
2022/07/13 18:58:13;;;;;;;16.90;3.03;;;20.40;99.90;;;;;;6159276;23;20040;-89
2022/07/13 19:00:39;;;;;;;16.02;3.83;;;20.40;99.90;;;;;;6184981;23;20028;-87
2022/07/13 19:03:05;;;;;;;12.93;2.70;;;20.70;99.90;;;;;;6186080;23;20020;-88
2022/07/13 19:05:31;;;;;;;15.35;3.05;;;20.30;99.90;;;;;;6159645;23;20024;-88
2022/07/13 19:07:56;;;;;;;13.35;2.90;;;20.10;99.90;;;;;;6157862;23;20021;-88
2022/07/13 19:10:22;;;;;;;12.38;2.83;;;19.90;99.90;;;;;;6186203;23;20023;-89
2022/07/13 19:12:48;;;;;;;14.38;2.85;;;20.20;99.90;;;;;;6159240;23;20088;-89
2022/07/13 19:15:14;;;;;;;13.13;2.85;;;19.60;99.90;;;;;;6158579;23;20021;-89
2022/07/13 19:17:40;;;;;;;14.32;3.08;;;19.50;99.90;;;;;;6186651;23;20362;-91
2022/07/13 19:20:10;;;;;;;14.25;3.00;;;19.50;99.90;;;;;;6159024;23;20021;-89
2022/07/13 19:22:35;;;;;;;12.88;3.10;;;19.30;99.90;;;;;;6183114;23;20115;-85
2022/07/13 19:27:50;;;;;;;14.50;3.15;;;19.10;99.90;;;;;;6185773;23;20017;-85
2022/07/13 19:30:16;;;;;;;14.02;3.05;;;19.50;99.90;;;;;;6183841;23;20449;-83
2022/07/13 19:32:42;;;;;;;12.73;2.80;;;19.00;99.90;;;;;;6185208;23;20013;-83
2022/07/13 19:35:08;;;;;;;15.00;2.65;;;18.80;99.90;;;;;;6184377;23;20017;-84
2022/07/13 19:37:33;;;;;;;13.73;3.17;;;18.70;99.90;;;;;;6185335;23;20055;-83
2022/07/13 19:39:59;;;;;;;16.40;3.60;;;18.60;99.90;;;;;;6185186;23;20017;-84
2022/07/13 19:42:25;;;;;;;14.75;3.25;;;18.50;99.90;;;;;;6158030;23;20028;-84
2022/07/13 19:45:35;;;;;;;12.50;3.00;;;18.40;99.90;;;;;;6157040;23;20025;-85
2022/07/13 19:48:04;;;;;;;13.98;4.03;;;18.20;99.90;;;;;;6158447;23;20058;-85
2022/07/13 19:50:31;;;;;;;15.63;3.17;;;18.10;99.90;;;;;;6157861;23;20341;-84
2022/07/13 19:52:56;;;;;;;14.80;2.88;;;18.60;99.90;;;;;;6184039;23;20048;-84
2022/07/13 19:55:43;;;;;;;14.90;3.50;;;18.50;99.90;;;;;;6158780;23;20052;-84
2022/07/13 19:58:43;;;;;;;13.10;3.05;;;17.90;99.90;;;;;;6157906;23;20017;-85
2022/07/13 20:01:18;;;;;;;13.40;3.30;;;17.80;99.90;;;;;;6158614;23;20021;-84
2022/07/13 20:04:41;;;;;;;15.88;2.97;;;18.80;99.90;;;;;;6157296;23;20028;-84
2022/07/13 20:07:28;;;;;;;14.20;3.22;;;17.60;99.90;;;;;;6093270;23;20018;-85
2022/07/13 20:09:57;;;;;;;15.30;3.20;;;17.50;99.90;;;;;;6068992;23;20081;-84
2022/07/13 20:16:07;;;;;;;15.02;3.28;;;17.40;99.90;;;;;;6069199;23;20026;-84
2022/07/13 20:22:41;;;;;;;8.98;2.50;;;17.30;99.90;;;;;;6092663;23;20030;-83
2022/07/13 20:25:10;;;;;;;14.07;3.17;;;17.20;99.90;;;;;;6092406;23;20029;-83
2022/07/13 20:27:37;;;;;;;12.88;2.67;;;18.00;99.90;;;;;;6093473;23;20324;-83
2022/07/13 20:30:05;;;;;;;12.82;2.63;;;17.10;99.90;;;;;;6093113;23;20490;-83
2022/07/13 20:32:39;;;;;;;11.13;2.90;;;17.10;99.90;;;;;;6092934;23;20026;-84
2022/07/13 20:35:23;;;;;;;11.30;2.88;;;17.60;99.90;;;;;;6093278;23;20028;-83
2022/07/13 20:37:49;;;;;;;;;;;16.80;99.90;;;;;;6120512;23;20096;-82
2022/07/13 20:40:19;;;;;;;11.50;3.15;;;16.80;99.90;;;;;;6157461;23;19948;-84
2022/07/13 20:42:48;;;;;;;13.20;2.60;;;17.70;99.90;;;;;;6158202;23;20075;-83
2022/07/13 20:45:13;;;;;;;14.45;3.35;;;17.60;99.90;;;;;;6157935;23;20017;-84
2022/07/13 20:47:42;;;;;;;12.38;2.70;;;17.80;99.90;;;;;;6157389;23;20036;-84
2022/07/13 20:50:17;;;;;;;13.32;2.78;;;16.50;99.90;;;;;;6158336;23;20009;-84
2022/07/13 20:52:49;;;;;;;13.20;2.67;;;16.50;99.90;;;;;;6183024;23;20513;-82
2022/07/13 20:55:24;;;;;;;10.45;2.72;;;16.80;99.90;;;;;;6158349;23;20024;-82
2022/07/13 20:57:55;;;;;;;14.98;2.95;;;16.50;99.90;;;;;;6157017;23;20013;-83
2022/07/13 21:00:36;;;;;;;9.38;2.53;;;16.40;99.90;;;;;;6157308;23;20464;-83
2022/07/13 21:03:05;;;;;;;15.60;3.00;;;17.30;99.90;;;;;;6157743;23;20021;-83
2022/07/13 21:05:30;;;;;;;16.48;2.97;;;17.00;99.90;;;;;;6158346;23;20012;-83
2022/07/13 21:08:02;;;;;;;13.95;2.90;;;16.20;99.90;;;;;;6183438;23;20032;-83
2022/07/13 21:10:33;;;;;;;15.00;2.90;;;16.30;99.90;;;;;;6158267;23;20015;-83
2022/07/13 21:13:12;;;;;;;14.40;3.28;;;17.30;99.90;;;;;;6157424;23;20060;-83
2022/07/13 21:15:51;;;;;;;12.45;2.60;;;17.00;99.90;;;;;;6157166;23;20087;-83
2022/07/13 21:18:19;;;;;;;12.80;3.00;;;17.10;99.90;;;;;;6185153;23;20395;-83
2022/07/13 21:21:05;;;;;;;;;;;;;;;;;;;;;
2022/07/13 21:24:03;;;;;;;16.15;2.90;;;16.00;99.90;;;;;;6063633;23;20082;-83
2022/07/13 21:26:40;;;;;;;14.52;3.03;;;16.00;99.90;;;;;;6064394;23;20467;-83
2022/07/13 21:29:08;;;;;;;13.27;2.85;;;16.50;99.90;;;;;;6116677;23;20020;-85
2022/07/13 21:31:34;;;;;;;15.32;2.95;;;16.80;99.90;;;;;;6158191;23;20025;-84
2022/07/13 21:34:12;;;;;;;14.68;3.08;;;15.90;99.90;;;;;;6157920;23;20019;-83
2022/07/13 21:36:37;;;;;;;16.90;2.80;;;16.60;99.90;;;;;;6184179;23;20062;-84
2022/07/13 21:39:20;;;;;;;13.93;3.22;;;15.90;99.90;;;;;;6157402;23;20009;-83
2022/07/13 21:42:02;;;;;;;12.75;2.95;;;15.80;99.90;;;;;;6183076;23;20017;-83
2022/07/13 21:44:42;;;;;;;14.00;2.67;;;15.90;99.90;;;;;;6160049;23;20140;-83
2022/07/13 21:47:23;;;;;;;11.73;2.60;;;14.90;99.90;;;;;;6187130;23;20341;-83
2022/07/13 21:50:07;;;;;;;13.65;2.50;;;16.50;99.90;;;;;;6182429;23;20021;-83
2022/07/13 21:52:49;;;;;;;13.70;2.75;;;15.50;99.90;;;;;;6160234;23;20059;-83
2022/07/13 21:55:20;;;;;;;16.02;2.67;;;15.50;99.90;;;;;;6160587;23;20096;-83
2022/07/13 21:57:59;;;;;;;12.38;2.88;;;15.40;99.90;;;;;;6159099;23;20017;-83
2022/07/13 22:00:27;;;;;;;13.82;3.08;;;15.90;99.90;;;;;;6159954;23;20112;-82
2022/07/13 22:03:00;;;;;;;12.68;2.55;;;16.50;99.90;;;;;;6184091;23;20017;-82
2022/07/13 22:05:48;;;;;;;15.60;3.05;;;15.40;99.90;;;;;;6185425;23;20104;-82
2022/07/13 22:08:13;;;;;;;13.23;2.90;;;15.30;99.90;;;;;;6157956;23;20096;-84
2022/07/13 22:11:16;;;;;;;11.18;2.50;;;15.30;99.90;;;;;;6186238;23;20051;-83
2022/07/13 22:14:21;;;;;;;13.75;2.50;;;15.20;99.90;;;;;;6186899;23;20248;-83
2022/07/13 22:17:24;;;;;;;13.60;2.58;;;15.20;99.90;;;;;;6160089;23;20524;-83
2022/07/13 22:20:27;;;;;;;11.18;2.47;;;15.20;99.90;;;;;;6186668;23;20013;-83
2022/07/13 22:23:30;;;;;;;11.45;2.38;;;15.20;99.90;;;;;;6168924;23;20453;-83
2022/07/13 22:26:33;;;;;;;12.85;2.50;;;15.20;99.90;;;;;;6159024;23;20326;-83
2022/07/13 22:29:36;;;;;;;11.45;2.65;;;15.10;99.90;;;;;;6159694;23;20068;-83
2022/07/13 22:32:40;;;;;;;13.13;2.55;;;15.10;99.90;;;;;;6158907;23;20017;-83
2022/07/13 22:35:43;;;;;;;10.75;2.38;;;15.00;99.90;;;;;;6186807;23;20072;-83
2022/07/13 22:38:46;;;;;;;10.75;2.42;;;15.00;99.90;;;;;;6159108;23;20013;-83
2022/07/13 22:41:49;;;;;;;14.95;2.50;;;15.00;99.90;;;;;;6187017;23;20020;-83
2022/07/13 22:44:51;;;;;;;14.95;2.92;;;14.90;99.90;;;;;;6186036;23;20523;-83
2022/07/13 22:47:55;;;;;;;11.70;2.45;;;14.90;99.90;;;;;;6158627;23;20021;-83
2022/07/13 22:50:58;;;;;;;12.35;2.67;;;14.90;99.90;;;;;;6159739;23;20077;-84
2022/07/13 22:54:01;;;;;;;11.80;2.63;;;14.90;99.90;;;;;;6158471;23;20476;-83
2022/07/13 22:57:05;;;;;;;12.45;2.67;;;14.80;99.90;;;;;;6186194;23;20020;-83
2022/07/13 23:00:08;;;;;;;14.47;2.73;;;14.80;99.90;;;;;;6185251;23;20028;-83
2022/07/13 23:03:11;;;;;;;11.55;3.00;;;14.80;99.90;;;;;;6159325;23;20020;-84
2022/07/13 23:06:14;;;;;;;11.88;2.17;;;14.70;99.90;;;;;;6159598;23;20021;-83
2022/07/13 23:09:18;;;;;;;10.63;2.47;;;14.70;99.90;;;;;;6159195;23;20055;-83
2022/07/13 23:12:21;;;;;;;14.18;2.75;;;14.70;99.90;;;;;;6158991;23;20028;-84
2022/07/13 23:15:23;;;;;;;10.60;2.63;;;14.60;99.90;;;;;;6184407;23;20349;-84
2022/07/13 23:18:27;;;;;;;12.73;2.50;;;14.60;99.90;;;;;;6159413;23;20349;-83
2022/07/13 23:21:30;;;;;;;15.80;3.03;;;14.60;99.90;;;;;;6184914;23;20029;-84
2022/07/13 23:24:33;;;;;;;11.88;2.47;;;14.50;99.90;;;;;;6159645;23;20527;-84
2022/07/13 23:27:36;;;;;;;10.43;2.20;;;14.50;99.90;;;;;;6186022;23;20021;-84
2022/07/13 23:30:33;;;;;;;12.65;2.38;;;14.50;99.90;;;;;;6186032;23;20017;-83
2022/07/13 23:33:00;;;;;;;12.05;2.60;;;14.50;99.90;;;;;;6159283;23;20013;-83
2022/07/13 23:35:26;;;;;;;10.70;2.20;;;14.50;99.90;;;;;;6185380;23;20052;-83
2022/07/13 23:37:53;;;;;;;13.32;3.25;;;14.40;99.90;;;;;;6158931;23;20017;-83
2022/07/13 23:40:22;;;;;;;11.95;2.60;;;14.40;99.90;;;;;;6185875;23;20107;-84
2022/07/13 23:42:48;;;;;;;12.50;2.80;;;14.40;99.90;;;;;;6184442;23;20414;-84
2022/07/13 23:45:14;;;;;;;11.68;2.75;;;14.40;99.90;;;;;;6159063;23;20072;-83
2022/07/13 23:47:39;;;;;;;17.85;3.10;;;14.40;99.90;;;;;;6186012;23;20345;-83
2022/07/13 23:50:06;;;;;;;11.27;2.53;;;14.30;99.90;;;;;;6184715;23;20024;-83
2022/07/13 23:52:33;;;;;;;11.60;2.25;;;14.30;99.90;;;;;;6159428;23;20055;-83
2022/07/13 23:55:00;;;;;;;11.23;2.88;;;14.90;99.90;;;;;;6158878;23;20472;-83
2022/07/13 23:57:25;;;;;;;11.05;2.47;;;14.30;99.90;;;;;;6158689;23;20017;-84
2022/07/13 23:59:51;;;;;;;13.55;2.58;;;14.30;99.90;;;;;;6159037;23;20513;-84
